sensor_id;sensor_type;location;lat;lon;timestamp;pressure;altitude;pressure_sealevel;temperature;humidity
60015;BME280;45867;52.480;6.056;2023-04-28T00:01:03;101506.78;;;7.07;100.00
60015;BME280;45867;52.480;6.056;2023-04-28T00:03:39;101498.50;;;7.03;100.00
60015;BME280;45867;52.480;6.056;2023-04-28T00:06:04;101484.88;;;7.06;100.00
60015;BME280;45867;52.480;6.056;2023-04-28T00:08:33;101500.94;;;7.17;100.00
60015;BME280;45867;52.480;6.056;2023-04-28T00:11:08;101486.38;;;7.02;100.00
60015;BME280;45867;52.480;6.056;2023-04-28T00:13:39;101480.25;;;6.90;100.00
60015;BME280;45867;52.480;6.056;2023-04-28T00:16:05;101468.31;;;6.76;100.00
60015;BME280;45867;52.480;6.056;2023-04-28T00:18:31;101469.41;;;6.68;100.00
60015;BME280;45867;52.480;6.056;2023-04-28T00:21:07;101473.81;;;6.74;100.00
60015;BME280;45867;52.480;6.056;2023-04-28T00:23:35;101448.00;;;6.64;100.00
60015;BME280;45867;52.480;6.056;2023-04-28T00:26:01;101455.19;;;6.57;100.00
60015;BME280;45867;52.480;6.056;2023-04-28T00:28:32;101451.59;;;6.52;100.00
60015;BME280;45867;52.480;6.056;2023-04-28T00:30:58;101434.19;;;6.39;100.00
60015;BME280;45867;52.480;6.056;2023-04-28T00:33:36;101456.31;;;6.50;100.00
60015;BME280;45867;52.480;6.056;2023-04-28T00:36:04;101445.19;;;6.48;100.00
60015;BME280;45867;52.480;6.056;2023-04-28T00:38:32;101442.78;;;6.46;100.00
60015;BME280;45867;52.480;6.056;2023-04-28T00:40:58;101430.44;;;6.47;100.00
60015;BME280;45867;52.480;6.056;2023-04-28T00:43:23;101441.53;;;6.49;100.00
60015;BME280;45867;52.480;6.056;2023-04-28T00:45:58;101418.94;;;6.41;100.00
60015;BME280;45867;52.480;6.056;2023-04-28T00:48:31;101426.03;;;6.40;100.00
60015;BME280;45867;52.480;6.056;2023-04-28T00:51:04;101416.13;;;6.24;100.00
60015;BME280;45867;52.480;6.056;2023-04-28T00:53:42;101413.28;;;6.26;100.00
60015;BME280;45867;52.480;6.056;2023-04-28T00:56:20;101398.16;;;6.21;100.00
60015;BME280;45867;52.480;6.056;2023-04-28T00:58:52;101385.91;;;6.15;100.00
60015;BME280;45867;52.480;6.056;2023-04-28T01:01:19;101388.75;;;6.13;100.00
60015;BME280;45867;52.480;6.056;2023-04-28T01:03:51;101388.84;;;6.07;100.00
60015;BME280;45867;52.480;6.056;2023-04-28T01:06:19;101395.00;;;6.00;100.00
60015;BME280;45867;52.480;6.056;2023-04-28T01:08:56;101397.47;;;5.95;100.00
60015;BME280;45867;52.480;6.056;2023-04-28T01:11:43;101380.00;;;5.83;100.00
60015;BME280;45867;52.480;6.056;2023-04-28T01:14:14;101382.56;;;5.71;100.00
60015;BME280;45867;52.480;6.056;2023-04-28T01:16:48;101390.94;;;5.79;100.00
60015;BME280;45867;52.480;6.056;2023-04-28T01:19:19;101383.56;;;5.70;100.00
60015;BME280;45867;52.480;6.056;2023-04-28T01:21:51;101384.16;;;5.72;100.00
60015;BME280;45867;52.480;6.056;2023-04-28T01:24:20;101371.81;;;5.54;100.00
60015;BME280;45867;52.480;6.056;2023-04-28T01:26:52;101388.47;;;5.66;100.00
60015;BME280;45867;52.480;6.056;2023-04-28T01:29:22;101359.03;;;5.39;100.00
60015;BME280;45867;52.480;6.056;2023-04-28T01:31:48;101370.44;;;5.51;100.00
60015;BME280;45867;52.480;6.056;2023-04-28T01:34:24;101371.72;;;5.42;100.00
60015;BME280;45867;52.480;6.056;2023-04-28T01:37:00;101361.94;;;5.31;100.00
60015;BME280;45867;52.480;6.056;2023-04-28T01:39:26;101376.19;;;5.42;100.00
60015;BME280;45867;52.480;6.056;2023-04-28T01:41:51;101361.50;;;5.34;100.00
60015;BME280;45867;52.480;6.056;2023-04-28T01:44:16;101349.88;;;5.23;100.00
60015;BME280;45867;52.480;6.056;2023-04-28T01:46:42;101355.50;;;5.45;100.00
60015;BME280;45867;52.480;6.056;2023-04-28T01:49:07;101322.88;;;5.34;100.00
60015;BME280;45867;52.480;6.056;2023-04-28T01:51:39;101342.69;;;5.55;100.00
60015;BME280;45867;52.480;6.056;2023-04-28T01:54:05;101334.06;;;5.48;100.00
60015;BME280;45867;52.480;6.056;2023-04-28T01:56:31;101323.78;;;5.47;100.00
60015;BME280;45867;52.480;6.056;2023-04-28T01:58:56;101333.69;;;5.45;100.00
60015;BME280;45867;52.480;6.056;2023-04-28T02:01:22;101323.63;;;5.42;100.00
60015;BME280;45867;52.480;6.056;2023-04-28T02:03:47;101316.31;;;5.44;100.00
60015;BME280;45867;52.480;6.056;2023-04-28T02:06:16;101312.91;;;5.43;100.00
60015;BME280;45867;52.480;6.056;2023-04-28T02:08:46;101323.28;;;5.56;100.00
60015;BME280;45867;52.480;6.056;2023-04-28T02:11:31;101330.03;;;5.64;100.00
60015;BME280;45867;52.480;6.056;2023-04-28T02:14:12;101299.47;;;5.51;100.00
60015;BME280;45867;52.480;6.056;2023-04-28T02:16:44;101304.91;;;5.68;100.00
60015;BME280;45867;52.480;6.056;2023-04-28T02:19:22;101307.59;;;5.62;100.00
60015;BME280;45867;52.480;6.056;2023-04-28T02:21:55;101308.44;;;5.62;100.00
60015;BME280;45867;52.480;6.056;2023-04-28T02:24:43;101303.59;;;5.59;100.00
60015;BME280;45867;52.480;6.056;2023-04-28T02:27:23;101296.09;;;5.63;100.00
60015;BME280;45867;52.480;6.056;2023-04-28T02:29:56;101288.34;;;5.49;100.00
60015;BME280;45867;52.480;6.056;2023-04-28T02:32:24;101296.00;;;5.51;100.00
60015;BME280;45867;52.480;6.056;2023-04-28T02:34:56;101282.97;;;5.44;100.00
60015;BME280;45867;52.480;6.056;2023-04-28T02:37:29;101283.47;;;5.34;100.00
60015;BME280;45867;52.480;6.056;2023-04-28T02:39:55;101313.25;;;5.47;100.00
60015;BME280;45867;52.480;6.056;2023-04-28T02:42:23;101281.38;;;5.25;100.00
60015;BME280;45867;52.480;6.056;2023-04-28T02:44:59;101294.41;;;5.31;100.00
60015;BME280;45867;52.480;6.056;2023-04-28T02:47:27;101286.75;;;5.30;100.00
60015;BME280;45867;52.480;6.056;2023-04-28T02:49:56;101292.38;;;5.33;100.00
60015;BME280;45867;52.480;6.056;2023-04-28T02:52:21;101273.69;;;5.23;100.00
60015;BME280;45867;52.480;6.056;2023-04-28T02:54:49;101287.34;;;5.32;100.00
60015;BME280;45867;52.480;6.056;2023-04-28T02:57:18;101298.06;;;5.49;100.00
60015;BME280;45867;52.480;6.056;2023-04-28T02:59:47;101275.81;;;5.33;100.00
60015;BME280;45867;52.480;6.056;2023-04-28T03:02:12;101282.97;;;5.44;100.00
60015;BME280;45867;52.480;6.056;2023-04-28T03:04:38;101285.94;;;5.48;100.00
60015;BME280;45867;52.480;6.056;2023-04-28T03:07:04;101279.81;;;5.54;100.00
60015;BME280;45867;52.480;6.056;2023-04-28T03:09:33;101289.66;;;5.59;100.00
60015;BME280;45867;52.480;6.056;2023-04-28T03:12:04;101282.22;;;5.55;100.00
60015;BME280;45867;52.480;6.056;2023-04-28T03:14:33;101258.78;;;5.54;100.00
60015;BME280;45867;52.480;6.056;2023-04-28T03:17:01;101272.56;;;5.68;100.00
60015;BME280;45867;52.480;6.056;2023-04-28T03:19:26;101251.25;;;5.57;100.00
60015;BME280;45867;52.480;6.056;2023-04-28T03:22:07;101257.78;;;5.67;100.00
60015;BME280;45867;52.480;6.056;2023-04-28T03:24:42;101236.50;;;5.56;100.00
60015;BME280;45867;52.480;6.056;2023-04-28T03:27:10;101249.47;;;5.70;100.00
60015;BME280;45867;52.480;6.056;2023-04-28T03:29:36;101239.78;;;5.70;100.00
60015;BME280;45867;52.480;6.056;2023-04-28T03:35:33;101236.91;;;5.72;100.00
60015;BME280;45867;52.480;6.056;2023-04-28T03:41:56;101234.22;;;5.90;100.00
60015;BME280;45867;52.480;6.056;2023-04-28T03:44:39;101206.66;;;5.81;100.00
60015;BME280;45867;52.480;6.056;2023-04-28T03:47:16;101197.47;;;5.84;100.00
60015;BME280;45867;52.480;6.056;2023-04-28T03:50:00;101200.09;;;5.84;100.00
60015;BME280;45867;52.480;6.056;2023-04-28T03:53:01;101198.53;;;5.83;100.00
60015;BME280;45867;52.480;6.056;2023-04-28T03:55:57;101209.50;;;5.91;100.00
60015;BME280;45867;52.480;6.056;2023-04-28T03:58:37;101192.34;;;5.89;100.00
60015;BME280;45867;52.480;6.056;2023-04-28T04:01:08;101200.19;;;5.95;100.00
60015;BME280;45867;52.480;6.056;2023-04-28T04:06:27;101193.50;;;5.93;100.00
60015;BME280;45867;52.480;6.056;2023-04-28T04:08:53;101170.75;;;5.87;100.00
60015;BME280;45867;52.480;6.056;2023-04-28T04:11:25;101172.00;;;5.84;100.00
60015;BME280;45867;52.480;6.056;2023-04-28T04:13:56;101191.50;;;5.95;100.00
60015;BME280;45867;52.480;6.056;2023-04-28T04:16:24;101189.66;;;5.95;100.00
60015;BME280;45867;52.480;6.056;2023-04-28T04:18:56;101177.31;;;5.96;100.00
60015;BME280;45867;52.480;6.056;2023-04-28T04:21:23;101170.47;;;5.95;100.00
60015;BME280;45867;52.480;6.056;2023-04-28T04:23:55;101176.84;;;5.99;100.00
60015;BME280;45867;52.480;6.056;2023-04-28T04:26:20;101171.59;;;5.99;100.00
60015;BME280;45867;52.480;6.056;2023-04-28T04:28:46;101172.50;;;6.05;100.00
60015;BME280;45867;52.480;6.056;2023-04-28T04:31:12;101169.53;;;6.01;100.00
60015;BME280;45867;52.480;6.056;2023-04-28T04:33:37;101170.56;;;6.00;100.00
60015;BME280;45867;52.480;6.056;2023-04-28T04:36:03;101188.41;;;6.10;100.00
60015;BME280;45867;52.480;6.056;2023-04-28T04:38:39;101159.22;;;5.99;100.00
60015;BME280;45867;52.480;6.056;2023-04-28T04:41:28;101193.47;;;6.11;100.00
60015;BME280;45867;52.480;6.056;2023-04-28T04:44:19;101157.63;;;5.98;100.00
60015;BME280;45867;52.480;6.056;2023-04-28T04:46:53;101182.25;;;6.16;100.00
60015;BME280;45867;52.480;6.056;2023-04-28T04:49:32;101153.09;;;6.06;100.00
60015;BME280;45867;52.480;6.056;2023-04-28T04:52:06;101144.94;;;6.07;100.00
60015;BME280;45867;52.480;6.056;2023-04-28T04:54:58;101140.72;;;6.06;100.00
60015;BME280;45867;52.480;6.056;2023-04-28T04:57:26;101151.72;;;6.15;100.00
60015;BME280;45867;52.480;6.056;2023-04-28T04:59:51;101130.06;;;6.13;100.00
60015;BME280;45867;52.480;6.056;2023-04-28T05:02:16;101126.66;;;6.12;100.00
60015;BME280;45867;52.480;6.056;2023-04-28T05:04:47;101145.44;;;6.28;100.00
60015;BME280;45867;52.480;6.056;2023-04-28T05:07:14;101141.88;;;6.34;100.00
60015;BME280;45867;52.480;6.056;2023-04-28T05:12:26;101124.91;;;6.30;100.00
60015;BME280;45867;52.480;6.056;2023-04-28T05:15:29;101154.81;;;6.47;100.00
60015;BME280;45867;52.480;6.056;2023-04-28T05:18:09;101141.41;;;6.37;100.00
60015;BME280;45867;52.480;6.056;2023-04-28T05:20:36;101125.63;;;6.37;100.00
60015;BME280;45867;52.480;6.056;2023-04-28T05:34:25;101137.38;;;6.58;100.00
60015;BME280;45867;52.480;6.056;2023-04-28T05:36:55;101140.69;;;6.65;100.00
60015;BME280;45867;52.480;6.056;2023-04-28T06:07:40;101120.50;;;7.11;100.00
60015;BME280;45867;52.480;6.056;2023-04-28T06:13:56;101127.47;;;7.17;100.00
60015;BME280;45867;52.480;6.056;2023-04-28T06:28:06;101132.16;;;7.44;100.00
60015;BME280;45867;52.480;6.056;2023-04-28T06:31:06;101142.31;;;7.52;100.00
60015;BME280;45867;52.480;6.056;2023-04-28T06:37:20;101140.84;;;7.56;100.00
60015;BME280;45867;52.480;6.056;2023-04-28T06:40:11;101147.31;;;7.65;100.00
60015;BME280;45867;52.480;6.056;2023-04-28T06:50:22;101133.63;;;7.85;100.00
60015;BME280;45867;52.480;6.056;2023-04-28T06:57:09;101117.25;;;7.83;100.00
60015;BME280;45867;52.480;6.056;2023-04-28T07:00:05;101096.88;;;7.78;100.00
60015;BME280;45867;52.480;6.056;2023-04-28T07:02:54;101084.16;;;7.75;100.00
60015;BME280;45867;52.480;6.056;2023-04-28T07:05:43;101100.38;;;7.84;100.00
60015;BME280;45867;52.480;6.056;2023-04-28T07:09:02;101066.97;;;7.73;100.00
60015;BME280;45867;52.480;6.056;2023-04-28T07:16:03;101074.41;;;7.76;100.00
60015;BME280;45867;52.480;6.056;2023-04-28T07:19:15;101077.91;;;7.98;100.00
60015;BME280;45867;52.480;6.056;2023-04-28T07:33:14;101082.66;;;9.33;100.00
60015;BME280;45867;52.480;6.056;2023-04-28T07:39:41;101091.56;;;9.22;100.00
60015;BME280;45867;52.480;6.056;2023-04-28T07:45:06;101078.22;;;9.39;100.00
60015;BME280;45867;52.480;6.056;2023-04-28T07:47:46;101069.44;;;9.33;100.00
60015;BME280;45867;52.480;6.056;2023-04-28T07:50:17;101078.88;;;9.24;100.00
60015;BME280;45867;52.480;6.056;2023-04-28T07:52:51;101095.00;;;9.23;100.00
60015;BME280;45867;52.480;6.056;2023-04-28T07:55:19;101079.25;;;9.06;100.00
60015;BME280;45867;52.480;6.056;2023-04-28T07:57:49;101080.03;;;9.06;100.00
60015;BME280;45867;52.480;6.056;2023-04-28T08:00:17;101094.38;;;9.16;100.00
60015;BME280;45867;52.480;6.056;2023-04-28T08:02:48;101087.53;;;9.15;100.00
60015;BME280;45867;52.480;6.056;2023-04-28T08:05:27;101098.72;;;9.27;100.00
60015;BME280;45867;52.480;6.056;2023-04-28T08:07:53;101080.78;;;9.29;100.00
60015;BME280;45867;52.480;6.056;2023-04-28T08:10:46;101107.47;;;9.60;100.00
60015;BME280;45867;52.480;6.056;2023-04-28T08:14:01;101102.31;;;9.75;100.00
60015;BME280;45867;52.480;6.056;2023-04-28T08:16:59;101080.34;;;9.74;100.00
60015;BME280;45867;52.480;6.056;2023-04-28T08:23:38;101088.41;;;9.95;100.00
60015;BME280;45867;52.480;6.056;2023-04-28T08:26:15;101068.84;;;9.96;100.00
60015;BME280;45867;52.480;6.056;2023-04-28T08:29:00;101054.31;;;10.04;100.00
60015;BME280;45867;52.480;6.056;2023-04-28T08:31:28;101069.72;;;10.07;100.00
60015;BME280;45867;52.480;6.056;2023-04-28T08:34:00;101062.81;;;10.06;100.00
60015;BME280;45867;52.480;6.056;2023-04-28T08:36:25;101093.94;;;10.31;100.00
60015;BME280;45867;52.480;6.056;2023-04-28T08:38:59;101070.41;;;10.34;100.00
60015;BME280;45867;52.480;6.056;2023-04-28T08:41:37;101079.16;;;10.40;100.00
60015;BME280;45867;52.480;6.056;2023-04-28T08:44:08;101084.81;;;10.59;100.00
60015;BME280;45867;52.480;6.056;2023-04-28T08:47:13;101074.81;;;10.81;100.00
60015;BME280;45867;52.480;6.056;2023-04-28T08:49:39;101072.47;;;11.00;100.00
60015;BME280;45867;52.480;6.056;2023-04-28T08:52:17;101074.56;;;10.93;100.00
60015;BME280;45867;52.480;6.056;2023-04-28T08:54:52;101056.28;;;10.86;100.00
60015;BME280;45867;52.480;6.056;2023-04-28T08:57:24;101051.50;;;10.88;100.00
60015;BME280;45867;52.480;6.056;2023-04-28T08:59:56;101071.41;;;11.01;100.00
60015;BME280;45867;52.480;6.056;2023-04-28T09:02:40;101050.19;;;10.86;100.00
60015;BME280;45867;52.480;6.056;2023-04-28T09:05:12;101059.19;;;10.95;100.00
60015;BME280;45867;52.480;6.056;2023-04-28T09:07:39;101047.56;;;11.22;100.00
60015;BME280;45867;52.480;6.056;2023-04-28T09:12:43;101030.53;;;11.89;100.00
60015;BME280;45867;52.480;6.056;2023-04-28T09:15:38;101059.56;;;12.51;100.00
60015;BME280;45867;52.480;6.056;2023-04-28T09:18:15;101036.44;;;12.46;100.00
60015;BME280;45867;52.480;6.056;2023-04-28T09:20:41;101042.09;;;12.84;100.00
60015;BME280;45867;52.480;6.056;2023-04-28T09:23:20;101025.16;;;13.09;100.00
60015;BME280;45867;52.480;6.056;2023-04-28T09:26:04;101031.66;;;13.32;100.00
60015;BME280;45867;52.480;6.056;2023-04-28T09:28:47;101040.31;;;13.08;100.00
60015;BME280;45867;52.480;6.056;2023-04-28T09:31:25;101030.94;;;13.21;100.00
60015;BME280;45867;52.480;6.056;2023-04-28T09:34:03;101013.31;;;13.25;100.00
60015;BME280;45867;52.480;6.056;2023-04-28T09:36:36;101009.69;;;13.50;100.00
60015;BME280;45867;52.480;6.056;2023-04-28T09:42:02;101004.69;;;13.44;100.00
60015;BME280;45867;52.480;6.056;2023-04-28T09:44:39;101013.88;;;14.05;100.00
60015;BME280;45867;52.480;6.056;2023-04-28T09:47:22;100983.78;;;14.47;100.00
60015;BME280;45867;52.480;6.056;2023-04-28T09:49:59;100983.59;;;15.14;100.00
60015;BME280;45867;52.480;6.056;2023-04-28T09:52:55;100996.41;;;15.45;100.00
60015;BME280;45867;52.480;6.056;2023-04-28T09:55:26;100990.47;;;15.48;100.00
60015;BME280;45867;52.480;6.056;2023-04-28T09:58:18;101006.44;;;15.67;100.00
60015;BME280;45867;52.480;6.056;2023-04-28T10:03:52;100991.75;;;15.37;100.00
60015;BME280;45867;52.480;6.056;2023-04-28T10:06:26;100998.72;;;15.19;100.00
60015;BME280;45867;52.480;6.056;2023-04-28T10:09:04;101004.06;;;14.67;100.00
60015;BME280;45867;52.480;6.056;2023-04-28T10:11:47;100994.81;;;14.59;100.00
60015;BME280;45867;52.480;6.056;2023-04-28T10:14:39;100994.09;;;14.54;100.00
60015;BME280;45867;52.480;6.056;2023-04-28T10:17:14;100992.56;;;14.48;100.00
60015;BME280;45867;52.480;6.056;2023-04-28T10:20:00;100990.81;;;14.95;100.00
60015;BME280;45867;52.480;6.056;2023-04-28T10:22:53;100990.41;;;15.53;100.00
60015;BME280;45867;52.480;6.056;2023-04-28T10:25:35;100971.94;;;15.24;100.00
60015;BME280;45867;52.480;6.056;2023-04-28T10:29:04;100985.88;;;15.21;100.00
60015;BME280;45867;52.480;6.056;2023-04-28T10:31:29;100990.41;;;15.06;100.00
60015;BME280;45867;52.480;6.056;2023-04-28T10:34:21;100991.09;;;14.79;100.00
60015;BME280;45867;52.480;6.056;2023-04-28T10:36:54;100997.22;;;14.18;100.00
60015;BME280;45867;52.480;6.056;2023-04-28T10:39:33;100976.59;;;14.05;100.00
60015;BME280;45867;52.480;6.056;2023-04-28T10:41:58;100985.34;;;13.62;100.00
60015;BME280;45867;52.480;6.056;2023-04-28T10:47:05;100990.75;;;13.52;100.00
60015;BME280;45867;52.480;6.056;2023-04-28T10:50:10;100997.94;;;13.51;100.00
60015;BME280;45867;52.480;6.056;2023-04-28T10:55:33;100999.16;;;13.35;100.00
60015;BME280;45867;52.480;6.056;2023-04-28T11:00:47;100981.94;;;13.57;100.00
60015;BME280;45867;52.480;6.056;2023-04-28T11:06:32;100987.91;;;13.43;100.00
60015;BME280;45867;52.480;6.056;2023-04-28T11:09:02;100983.56;;;13.76;100.00
60015;BME280;45867;52.480;6.056;2023-04-28T11:11:29;100957.97;;;13.81;100.00
60015;BME280;45867;52.480;6.056;2023-04-28T11:17:03;100979.72;;;13.64;100.00
60015;BME280;45867;52.480;6.056;2023-04-28T11:19:31;100976.44;;;13.48;100.00
60015;BME280;45867;52.480;6.056;2023-04-28T11:22:03;100980.94;;;13.47;100.00
60015;BME280;45867;52.480;6.056;2023-04-28T11:24:29;100978.75;;;13.20;100.00
60015;BME280;45867;52.480;6.056;2023-04-28T11:26:55;100956.13;;;13.23;100.00
60015;BME280;45867;52.480;6.056;2023-04-28T11:29:39;100978.28;;;13.18;100.00
60015;BME280;45867;52.480;6.056;2023-04-28T11:32:08;100968.91;;;12.92;100.00
60015;BME280;45867;52.480;6.056;2023-04-28T11:34:35;100977.78;;;13.11;100.00
60015;BME280;45867;52.480;6.056;2023-04-28T11:37:01;100956.41;;;13.26;100.00
60015;BME280;45867;52.480;6.056;2023-04-28T11:39:30;100958.41;;;13.05;100.00
60015;BME280;45867;52.480;6.056;2023-04-28T11:41:57;100959.94;;;13.11;100.00
60015;BME280;45867;52.480;6.056;2023-04-28T11:44:25;100964.88;;;13.28;100.00
60015;BME280;45867;52.480;6.056;2023-04-28T11:47:00;100957.19;;;13.27;100.00
60015;BME280;45867;52.480;6.056;2023-04-28T11:49:26;100961.31;;;13.09;100.00
60015;BME280;45867;52.480;6.056;2023-04-28T11:51:57;100958.94;;;13.07;100.00
60015;BME280;45867;52.480;6.056;2023-04-28T11:54:28;100953.38;;;13.04;100.00
60015;BME280;45867;52.480;6.056;2023-04-28T11:56:55;100947.22;;;13.08;100.00
60015;BME280;45867;52.480;6.056;2023-04-28T11:59:29;100953.56;;;13.13;100.00
60015;BME280;45867;52.480;6.056;2023-04-28T12:01:56;100947.34;;;12.93;100.00
60015;BME280;45867;52.480;6.056;2023-04-28T12:04:31;100947.78;;;13.05;100.00
60015;BME280;45867;52.480;6.056;2023-04-28T12:07:17;100941.38;;;13.06;100.00
60015;BME280;45867;52.480;6.056;2023-04-28T12:09:45;100932.16;;;13.28;100.00
60015;BME280;45867;52.480;6.056;2023-04-28T12:12:27;100928.03;;;13.41;100.00
60015;BME280;45867;52.480;6.056;2023-04-28T12:14:58;100907.81;;;13.10;100.00
60015;BME280;45867;52.480;6.056;2023-04-28T12:17:27;100912.53;;;13.48;100.00
60015;BME280;45867;52.480;6.056;2023-04-28T12:19:54;100904.19;;;13.79;100.00
60015;BME280;45867;52.480;6.056;2023-04-28T12:22:19;100882.75;;;14.27;100.00
60015;BME280;45867;52.480;6.056;2023-04-28T12:24:45;100889.22;;;14.02;100.00
60015;BME280;45867;52.480;6.056;2023-04-28T12:27:20;100884.63;;;14.26;100.00
60015;BME280;45867;52.480;6.056;2023-04-28T12:29:49;100877.28;;;14.37;100.00
60015;BME280;45867;52.480;6.056;2023-04-28T12:32:16;100875.84;;;14.26;100.00
60015;BME280;45867;52.480;6.056;2023-04-28T12:34:44;100869.94;;;14.29;100.00
60015;BME280;45867;52.480;6.056;2023-04-28T12:37:13;100867.03;;;14.44;100.00
60015;BME280;45867;52.480;6.056;2023-04-28T12:39:39;100873.19;;;14.26;100.00
60015;BME280;45867;52.480;6.056;2023-04-28T12:42:05;100890.72;;;14.64;100.00
60015;BME280;45867;52.480;6.056;2023-04-28T12:44:32;100891.97;;;14.53;100.00
60015;BME280;45867;52.480;6.056;2023-04-28T12:47:03;100885.28;;;13.99;100.00
60015;BME280;45867;52.480;6.056;2023-04-28T12:49:29;100874.66;;;13.56;100.00
60015;BME280;45867;52.480;6.056;2023-04-28T12:51:55;100871.59;;;13.87;100.00
60015;BME280;45867;52.480;6.056;2023-04-28T12:54:21;100866.03;;;14.21;100.00
60015;BME280;45867;52.480;6.056;2023-04-28T12:56:46;100860.94;;;14.25;100.00
60015;BME280;45867;52.480;6.056;2023-04-28T12:59:12;100861.72;;;14.44;100.00
60015;BME280;45867;52.480;6.056;2023-04-28T13:01:37;100866.97;;;14.49;100.00
60015;BME280;45867;52.480;6.056;2023-04-28T13:04:03;100865.28;;;14.72;100.00
60015;BME280;45867;52.480;6.056;2023-04-28T13:06:30;100864.72;;;15.03;100.00
60015;BME280;45867;52.480;6.056;2023-04-28T13:08:56;100887.25;;;14.83;100.00
60015;BME280;45867;52.480;6.056;2023-04-28T13:11:22;100874.91;;;14.35;100.00
60015;BME280;45867;52.480;6.056;2023-04-28T13:13:51;100867.84;;;14.26;100.00
60015;BME280;45867;52.480;6.056;2023-04-28T13:16:17;100884.28;;;14.33;100.00
60015;BME280;45867;52.480;6.056;2023-04-28T13:18:43;100899.31;;;14.42;100.00
60015;BME280;45867;52.480;6.056;2023-04-28T13:21:08;100889.59;;;14.33;100.00
60015;BME280;45867;52.480;6.056;2023-04-28T13:23:34;100873.03;;;14.17;100.00
60015;BME280;45867;52.480;6.056;2023-04-28T13:25:59;100865.25;;;14.02;100.00
60015;BME280;45867;52.480;6.056;2023-04-28T13:28:28;100883.25;;;14.10;100.00
60015;BME280;45867;52.480;6.056;2023-04-28T13:30:54;100877.44;;;14.08;100.00
60015;BME280;45867;52.480;6.056;2023-04-28T13:33:19;100866.91;;;13.97;100.00
60015;BME280;45867;52.480;6.056;2023-04-28T13:35:44;100866.28;;;14.06;100.00
60015;BME280;45867;52.480;6.056;2023-04-28T13:38:10;100866.06;;;13.83;100.00
60015;BME280;45867;52.480;6.056;2023-04-28T13:40:35;100869.66;;;13.92;100.00
60015;BME280;45867;52.480;6.056;2023-04-28T13:43:00;100860.56;;;13.93;100.00
60015;BME280;45867;52.480;6.056;2023-04-28T13:45:26;100857.63;;;13.95;100.00
60015;BME280;45867;52.480;6.056;2023-04-28T13:47:55;100857.84;;;13.98;100.00
60015;BME280;45867;52.480;6.056;2023-04-28T13:50:21;100864.97;;;14.03;100.00
60015;BME280;45867;52.480;6.056;2023-04-28T13:52:46;100877.00;;;14.01;100.00
60015;BME280;45867;52.480;6.056;2023-04-28T13:55:13;100857.63;;;13.95;100.00
60015;BME280;45867;52.480;6.056;2023-04-28T13:57:38;100852.81;;;13.97;100.00
60015;BME280;45867;52.480;6.056;2023-04-28T14:00:04;100865.69;;;14.09;100.00
60015;BME280;45867;52.480;6.056;2023-04-28T14:02:30;100866.06;;;13.83;100.00
60015;BME280;45867;52.480;6.056;2023-04-28T14:04:56;100870.16;;;13.75;100.00
60015;BME280;45867;52.480;6.056;2023-04-28T14:07:21;100874.38;;;13.76;100.00
60015;BME280;45867;52.480;6.056;2023-04-28T14:09:48;100875.22;;;13.72;100.00
60015;BME280;45867;52.480;6.056;2023-04-28T14:12:13;100857.81;;;13.37;100.00
60015;BME280;45867;52.480;6.056;2023-04-28T14:14:39;100853.41;;;13.27;100.00
60015;BME280;45867;52.480;6.056;2023-04-28T14:17:05;100863.00;;;13.23;100.00
60015;BME280;45867;52.480;6.056;2023-04-28T14:19:30;100862.03;;;13.14;100.00
60015;BME280;45867;52.480;6.056;2023-04-28T14:21:56;100876.16;;;13.09;100.00
60015;BME280;45867;52.480;6.056;2023-04-28T14:24:21;100864.50;;;13.05;100.00
60015;BME280;45867;52.480;6.056;2023-04-28T14:26:47;100847.47;;;13.06;100.00
60015;BME280;45867;52.480;6.056;2023-04-28T14:29:13;100841.81;;;13.13;100.00
60015;BME280;45867;52.480;6.056;2023-04-28T14:31:39;100841.81;;;13.13;100.00
60015;BME280;45867;52.480;6.056;2023-04-28T14:34:04;100851.56;;;13.22;100.00
60015;BME280;45867;52.480;6.056;2023-04-28T14:36:31;100825.13;;;13.07;100.00
60015;BME280;45867;52.480;6.056;2023-04-28T14:38:59;100842.31;;;13.15;100.00
60015;BME280;45867;52.480;6.056;2023-04-28T14:41:24;100822.63;;;13.16;100.00
60015;BME280;45867;52.480;6.056;2023-04-28T14:43:50;100821.38;;;13.08;100.00
60015;BME280;45867;52.480;6.056;2023-04-28T14:46:15;100823.56;;;13.30;100.00
60015;BME280;45867;52.480;6.056;2023-04-28T14:48:48;100814.00;;;13.29;100.00
60015;BME280;45867;52.480;6.056;2023-04-28T14:51:13;100827.03;;;13.25;100.00
60015;BME280;45867;52.480;6.056;2023-04-28T14:53:40;100814.09;;;13.19;100.00
60015;BME280;45867;52.480;6.056;2023-04-28T14:56:06;100836.94;;;13.20;100.00
60015;BME280;45867;52.480;6.056;2023-04-28T14:58:33;100823.00;;;13.04;100.00
60015;BME280;45867;52.480;6.056;2023-04-28T15:00:59;100829.97;;;13.00;100.00
60015;BME280;45867;52.480;6.056;2023-04-28T15:03:24;100825.84;;;12.88;100.00
60015;BME280;45867;52.480;6.056;2023-04-28T15:05:51;100826.59;;;12.94;100.00
60015;BME280;45867;52.480;6.056;2023-04-28T15:08:16;100832.56;;;12.81;100.00
60015;BME280;45867;52.480;6.056;2023-04-28T15:10:43;100836.88;;;12.77;100.00
60015;BME280;45867;52.480;6.056;2023-04-28T15:13:08;100833.34;;;12.81;100.00
60015;BME280;45867;52.480;6.056;2023-04-28T15:15:34;100830.69;;;12.81;100.00
60015;BME280;45867;52.480;6.056;2023-04-28T15:18:00;100813.81;;;12.67;100.00
60015;BME280;45867;52.480;6.056;2023-04-28T15:20:27;100828.06;;;12.76;100.00
60015;BME280;45867;52.480;6.056;2023-04-28T15:22:54;100830.31;;;12.64;100.00
60015;BME280;45867;52.480;6.056;2023-04-28T15:25:19;100821.78;;;12.67;100.00